createdAt,value
2019-01-21T00:00:12.867Z,1018.35
2019-01-21T00:01:12.878Z,1018.42
2019-01-21T00:02:12.889Z,1018.41
2019-01-21T00:03:14.531Z,1018.42
2019-01-21T00:04:12.912Z,1018.38
2019-01-21T00:05:12.923Z,1018.4
2019-01-21T00:06:12.934Z,1018.38
2019-01-21T00:07:12.945Z,1018.37
2019-01-21T00:08:12.965Z,1018.38
2019-01-21T00:09:12.968Z,1018.38
2019-01-21T00:10:12.978Z,1018.41
2019-01-21T00:11:12.993Z,1018.35
2019-01-21T00:12:13.000Z,1018.4
2019-01-21T00:13:13.012Z,1018.34
2019-01-21T00:14:13.023Z,1018.35
2019-01-21T00:15:13.034Z,1018.36
2019-01-21T00:16:13.045Z,1018.35
2019-01-21T00:17:13.056Z,1018.36
2019-01-21T00:18:13.068Z,1018.34
2019-01-21T00:20:13.089Z,1018.36
2019-01-21T00:21:13.101Z,1018.33
2019-01-21T00:22:13.111Z,1018.31
2019-01-21T00:23:13.122Z,1018.29
2019-01-21T00:24:13.134Z,1018.32
2019-01-21T00:25:13.147Z,1018.25
2019-01-21T00:26:13.156Z,1018.28
2019-01-21T00:27:13.167Z,1018.28
2019-01-21T00:28:13.181Z,1018.3
2019-01-21T00:29:13.188Z,1018.3
2019-01-21T00:30:13.200Z,1018.31
2019-01-21T00:31:13.211Z,1018.29
2019-01-21T00:32:13.223Z,1018.24
2019-01-21T00:33:13.235Z,1018.25
2019-01-21T00:34:13.245Z,1018.27
2019-01-21T00:36:13.268Z,1018.27
2019-01-21T00:37:13.278Z,1018.33
2019-01-21T00:38:13.290Z,1018.29
2019-01-21T00:39:13.301Z,1018.27
2019-01-21T00:40:13.311Z,1018.28
2019-01-21T00:41:13.323Z,1018.27
2019-01-21T00:42:13.335Z,1018.28
2019-01-21T00:43:13.346Z,1018.32
2019-01-21T00:44:13.356Z,1018.26
2019-01-21T00:45:13.369Z,1018.31
2019-01-21T00:46:13.379Z,1018.26
2019-01-21T00:47:13.390Z,1018.26
2019-01-21T00:48:13.401Z,1018.31
2019-01-21T00:49:13.413Z,1018.26
2019-01-21T00:50:13.424Z,1018.28
2019-01-21T00:52:13.446Z,1018.3
2019-01-21T00:53:13.458Z,1018.3
2019-01-21T00:54:13.469Z,1018.31
2019-01-21T00:55:13.480Z,1018.32
2019-01-21T00:56:13.491Z,1018.3
2019-01-21T00:57:13.503Z,1018.28
2019-01-21T00:58:13.518Z,1018.32
2019-01-21T00:59:13.525Z,1018.29
2019-01-21T01:00:13.536Z,1018.29
2019-01-21T01:01:13.548Z,1018.26
2019-01-21T01:02:13.559Z,1018.32
2019-01-21T01:03:13.570Z,1018.29
2019-01-21T01:04:13.581Z,1018.33
2019-01-21T01:05:13.593Z,1018.3
2019-01-21T01:06:13.604Z,1018.34
2019-01-21T01:08:13.627Z,1018.35
2019-01-21T01:09:13.638Z,1018.37
2019-01-21T01:10:13.647Z,1018.36
2019-01-21T01:11:13.659Z,1018.39
2019-01-21T01:12:13.671Z,1018.35
2019-01-21T01:13:13.681Z,1018.35
2019-01-21T01:14:13.693Z,1018.35
2019-01-21T01:15:13.704Z,1018.4
2019-01-21T01:16:13.716Z,1018.36
2019-01-21T01:17:13.727Z,1018.37
2019-01-21T01:18:13.738Z,1018.36
2019-01-21T01:19:13.750Z,1018.37
2019-01-21T01:20:13.761Z,1018.37
2019-01-21T01:21:13.772Z,1018.34
2019-01-21T01:23:13.795Z,1018.42
2019-01-21T01:24:13.806Z,1018.39
2019-01-21T01:25:13.817Z,1018.37
2019-01-21T01:26:13.828Z,1018.36
2019-01-21T01:27:13.840Z,1018.41
2019-01-21T01:28:13.850Z,1018.4
2019-01-21T01:29:13.911Z,1018.36
2019-01-21T01:30:13.877Z,1018.38
2019-01-21T01:31:13.883Z,1018.42
2019-01-21T01:32:13.895Z,1018.42
2019-01-21T01:33:13.906Z,1018.42
2019-01-21T01:34:13.920Z,1018.4
2019-01-21T01:35:13.979Z,1018.38
2019-01-21T01:36:13.940Z,1018.39
2019-01-21T01:37:13.951Z,1018.4
2019-01-21T01:38:13.963Z,1018.35
2019-01-21T01:39:13.973Z,1018.4
2019-01-21T01:40:13.985Z,1018.36
2019-01-21T01:41:13.996Z,1018.37
2019-01-21T01:42:14.006Z,1018.35
2019-01-21T01:43:14.018Z,1018.33
2019-01-21T01:44:14.032Z,1018.3
2019-01-21T01:45:14.041Z,1018.36
2019-01-21T01:46:14.051Z,1018.35
2019-01-21T01:47:14.063Z,1018.38
2019-01-21T01:48:14.075Z,1018.35
2019-01-21T01:49:14.094Z,1018.33
2019-01-21T01:50:14.096Z,1018.34
2019-01-21T01:51:14.107Z,1018.34
2019-01-21T01:52:14.169Z,1018.34
2019-01-21T01:53:14.129Z,1018.36
2019-01-21T01:55:14.153Z,1018.36
2019-01-21T01:56:14.168Z,1018.37
2019-01-21T01:57:14.175Z,1018.39
2019-01-21T01:58:14.186Z,1018.37
2019-01-21T01:59:14.198Z,1018.36
2019-01-21T02:00:14.209Z,1018.35
2019-01-21T02:01:14.222Z,1018.39
2019-01-21T02:02:14.231Z,1018.35
2019-01-21T02:03:14.243Z,1018.35
2019-01-21T02:04:14.252Z,1018.35
2019-01-21T02:05:14.265Z,1018.34
2019-01-21T02:06:14.276Z,1018.33
2019-01-21T02:07:14.288Z,1018.37
2019-01-21T02:08:14.297Z,1018.36
2019-01-21T02:09:14.309Z,1018.37
2019-01-21T02:11:14.332Z,1018.4
2019-01-21T02:12:14.447Z,1018.39
2019-01-21T02:13:14.505Z,1018.36
2019-01-21T02:14:14.365Z,1018.34
2019-01-21T02:15:14.376Z,1018.37
2019-01-21T02:16:14.388Z,1018.31
2019-01-21T02:17:14.399Z,1018.32
2019-01-21T02:18:14.410Z,1018.34
2019-01-21T02:19:14.420Z,1018.36
2019-01-21T02:20:14.432Z,1018.3
2019-01-21T02:21:14.444Z,1018.38
2019-01-21T02:22:14.455Z,1018.4
2019-01-21T02:23:14.465Z,1018.4
2019-01-21T02:24:14.477Z,1018.37
2019-01-21T02:25:14.489Z,1018.34
2019-01-21T02:27:14.516Z,1018.32
2019-01-21T02:28:14.521Z,1018.35
2019-01-21T02:29:14.534Z,1018.35
2019-01-21T02:30:14.544Z,1018.33
2019-01-21T02:31:14.555Z,1018.31
2019-01-21T02:32:14.566Z,1018.28
2019-01-21T02:33:15.184Z,1018.33
2019-01-21T02:34:14.589Z,1018.31
2019-01-21T02:35:14.601Z,1018.31
2019-01-21T02:36:14.612Z,1018.29
2019-01-21T02:37:14.623Z,1018.31
2019-01-21T02:38:14.632Z,1018.29
2019-01-21T02:39:14.644Z,1018.28
2019-01-21T02:40:14.655Z,1018.27
2019-01-21T02:41:14.665Z,1018.28
2019-01-21T02:43:15.294Z,1018.27
2019-01-21T02:44:14.700Z,1018.21
2019-01-21T02:45:14.712Z,1018.19
2019-01-21T02:46:14.721Z,1018.19
2019-01-21T02:47:14.733Z,1018.23
2019-01-21T02:48:14.742Z,1018.23
2019-01-21T02:49:14.758Z,1018.22
2019-01-21T02:50:14.767Z,1018.19
2019-01-21T02:51:14.778Z,1018.21
2019-01-21T02:52:14.786Z,1018.2
2019-01-21T02:53:14.798Z,1018.18
2019-01-21T02:54:14.810Z,1018.17
2019-01-21T02:55:14.821Z,1018.19
2019-01-21T02:56:14.832Z,1018.19
2019-01-21T02:58:14.855Z,1018.2
2019-01-21T02:59:14.915Z,1018.2
2019-01-21T03:00:14.877Z,1018.21
2019-01-21T03:01:14.889Z,1018.15
2019-01-21T03:02:14.900Z,1018.18
2019-01-21T03:03:14.910Z,1018.15
2019-01-21T03:04:14.921Z,1018.16
2019-01-21T03:05:14.933Z,1018.11
2019-01-21T03:06:14.943Z,1018.11
2019-01-21T03:07:14.954Z,1018.15
2019-01-21T03:08:14.965Z,1018.14
2019-01-21T03:09:14.976Z,1018.1
2019-01-21T03:10:14.988Z,1018.09
2019-01-21T03:11:14.999Z,1018.11
2019-01-21T03:12:15.010Z,1018.1
2019-01-21T03:13:15.021Z,1018.1
2019-01-21T03:14:15.032Z,1018.09
2019-01-21T03:15:15.043Z,1018.1
2019-01-21T03:16:15.055Z,1018.12
2019-01-21T03:17:15.065Z,1018.13
2019-01-21T03:18:15.126Z,1018.1
2019-01-21T03:19:15.092Z,1018.12
2019-01-21T03:20:15.099Z,1018.13
2019-01-21T03:21:15.111Z,1018.13
2019-01-21T03:22:15.121Z,1018.11
2019-01-21T03:23:15.132Z,1018.15
2019-01-21T03:24:15.147Z,1018.12
2019-01-21T03:25:15.161Z,1018.13
2019-01-21T03:26:15.165Z,1018.14
2019-01-21T03:27:15.178Z,1018.16
2019-01-21T03:28:15.187Z,1018.14
2019-01-21T03:30:15.211Z,1018.18
2019-01-21T03:31:15.222Z,1018.22
2019-01-21T03:32:15.236Z,1018.21
2019-01-21T03:33:15.244Z,1018.2
2019-01-21T03:34:15.255Z,1018.19
2019-01-21T03:35:15.266Z,1018.19
2019-01-21T03:36:15.280Z,1018.12
2019-01-21T03:37:15.287Z,1018.17
2019-01-21T03:38:15.299Z,1018.16
2019-01-21T03:39:15.308Z,1018.16
2019-01-21T03:40:15.320Z,1018.16
2019-01-21T03:41:15.332Z,1018.18
2019-01-21T03:42:15.345Z,1018.16
2019-01-21T03:43:15.361Z,1018.19
2019-01-21T03:44:15.367Z,1018.2
2019-01-21T03:46:15.389Z,1018.17
2019-01-21T03:47:15.400Z,1018.16
2019-01-21T03:48:16.586Z,1018.14
2019-01-21T03:49:15.470Z,1018.17
2019-01-21T03:50:15.433Z,1018.11
2019-01-21T03:51:15.442Z,1018.17
2019-01-21T03:52:15.453Z,1018.13
2019-01-21T03:53:15.464Z,1018.16
2019-01-21T03:54:15.475Z,1018.13
2019-01-21T03:55:15.486Z,1018.13
2019-01-21T03:56:15.498Z,1018.11
2019-01-21T03:57:15.509Z,1018.15
2019-01-21T03:58:15.520Z,1018.07
2019-01-21T03:59:15.531Z,1018.11
2019-01-21T04:00:15.543Z,1018.08
2019-01-21T04:02:15.565Z,1018.08
2019-01-21T04:03:15.575Z,1018.14
2019-01-21T04:04:15.593Z,1018.1
2019-01-21T04:05:15.600Z,1018.06
2019-01-21T04:06:15.609Z,1018.06
2019-01-21T04:07:15.623Z,1018.05
2019-01-21T04:08:15.632Z,1018.1
2019-01-21T04:09:15.646Z,1018.07
2019-01-21T04:10:15.669Z,1018.04
2019-01-21T04:11:15.666Z,1018.03
2019-01-21T04:12:15.675Z,1018.07
2019-01-21T04:13:15.692Z,1018.05
2019-01-21T04:14:15.699Z,1018.02
2019-01-21T04:15:15.711Z,1017.99
2019-01-21T04:16:15.721Z,1017.98
2019-01-21T04:18:15.793Z,1018
2019-01-21T04:19:15.755Z,1017.96
2019-01-21T04:20:15.765Z,1017.98
2019-01-21T04:21:15.776Z,1017.95
2019-01-21T04:22:15.787Z,1017.95
2019-01-21T04:23:15.799Z,1017.94
2019-01-21T04:24:15.809Z,1017.96
2019-01-21T04:25:15.820Z,1017.99
2019-01-21T04:26:15.833Z,1017.97
2019-01-21T04:27:15.894Z,1017.97
2019-01-21T04:28:15.855Z,1018
2019-01-21T04:29:15.865Z,1017.97
2019-01-21T04:30:15.879Z,1017.95
2019-01-21T04:31:15.888Z,1017.92
2019-01-21T04:33:15.911Z,1017.95
2019-01-21T04:34:15.922Z,1017.93
2019-01-21T04:35:15.934Z,1017.96
2019-01-21T04:36:15.944Z,1017.92
2019-01-21T04:37:15.955Z,1017.9
2019-01-21T04:38:15.964Z,1017.93
2019-01-21T04:39:15.976Z,1017.95
2019-01-21T04:40:15.988Z,1017.95
2019-01-21T04:41:15.998Z,1017.94
2019-01-21T04:42:16.009Z,1017.88
2019-01-21T04:43:16.020Z,1017.87
2019-01-21T04:44:16.031Z,1017.9
2019-01-21T04:45:16.042Z,1017.84
2019-01-21T04:46:16.053Z,1017.84
2019-01-21T04:47:16.064Z,1017.85
2019-01-21T04:48:16.077Z,1017.83
2019-01-21T04:49:16.091Z,1017.88
2019-01-21T04:50:16.097Z,1017.86
2019-01-21T04:51:16.111Z,1017.86
2019-01-21T04:52:16.119Z,1017.86
2019-01-21T04:53:16.132Z,1017.84
2019-01-21T04:54:16.142Z,1017.86
2019-01-21T04:55:16.153Z,1017.84
2019-01-21T04:56:16.164Z,1017.83
2019-01-21T04:57:16.175Z,1017.81
2019-01-21T04:58:16.185Z,1017.82
2019-01-21T04:59:16.197Z,1017.85
2019-01-21T05:00:16.210Z,1017.83
2019-01-21T05:01:16.217Z,1017.83
2019-01-21T05:02:16.230Z,1017.83
2019-01-21T05:03:16.241Z,1017.79
2019-01-21T05:05:16.372Z,1017.83
2019-01-21T05:06:16.275Z,1017.82
2019-01-21T05:07:16.288Z,1017.84
2019-01-21T05:08:16.296Z,1017.81
2019-01-21T05:09:16.306Z,1017.78
2019-01-21T05:10:16.320Z,1017.77
2019-01-21T05:11:16.327Z,1017.75
2019-01-21T05:12:16.338Z,1017.77
2019-01-21T05:13:16.400Z,1017.75
2019-01-21T05:14:16.359Z,1017.77
2019-01-21T05:15:16.371Z,1017.74
2019-01-21T05:16:16.382Z,1017.74
2019-01-21T05:17:16.393Z,1017.73
2019-01-21T05:18:16.404Z,1017.76
2019-01-21T05:19:16.416Z,1017.73
2019-01-21T05:21:16.437Z,1017.78
2019-01-21T05:22:16.448Z,1017.78
2019-01-21T05:23:16.465Z,1017.79
2019-01-21T05:24:16.470Z,1017.8
2019-01-21T05:25:16.483Z,1017.8
2019-01-21T05:26:16.491Z,1017.78
2019-01-21T05:27:16.506Z,1017.79
2019-01-21T05:28:16.519Z,1017.81
2019-01-21T05:29:16.524Z,1017.78
2019-01-21T05:30:16.535Z,1017.78
2019-01-21T05:31:16.546Z,1017.79
2019-01-21T05:32:16.557Z,1017.81
2019-01-21T05:33:16.567Z,1017.82
2019-01-21T05:34:16.578Z,1017.84
2019-01-21T05:35:16.590Z,1017.81
2019-01-21T05:37:16.611Z,1017.78
2019-01-21T05:38:16.622Z,1017.82
2019-01-21T05:39:16.633Z,1017.79
2019-01-21T05:40:16.694Z,1017.73
2019-01-21T05:41:16.655Z,1017.75
2019-01-21T05:42:16.666Z,1017.72
2019-01-21T05:43:16.777Z,1017.75
2019-01-21T05:44:16.689Z,1017.73
2019-01-21T05:45:16.701Z,1017.75
2019-01-21T05:46:16.714Z,1017.71
2019-01-21T05:47:16.721Z,1017.76
2019-01-21T05:48:16.731Z,1017.76
2019-01-21T05:49:16.741Z,1017.75
2019-01-21T05:50:16.753Z,1017.75
2019-01-21T05:51:16.762Z,1017.74
2019-01-21T05:53:16.786Z,1017.74
2019-01-21T05:54:16.796Z,1017.77
2019-01-21T05:55:16.806Z,1017.77
2019-01-21T05:56:16.817Z,1017.75
2019-01-21T05:57:16.829Z,1017.76
2019-01-21T05:58:16.840Z,1017.78
2019-01-21T05:59:16.855Z,1017.76
2019-01-21T06:00:16.867Z,1017.77
2019-01-21T06:01:16.871Z,1017.79
2019-01-21T06:02:16.881Z,1017.79
2019-01-21T06:03:16.892Z,1017.79
2019-01-21T06:04:16.908Z,1017.8
2019-01-21T06:05:16.917Z,1017.75
2019-01-21T06:06:16.931Z,1017.78
2019-01-21T06:08:16.948Z,1017.79
2019-01-21T06:09:16.959Z,1017.77
2019-01-21T06:10:17.021Z,1017.81
2019-01-21T06:11:17.030Z,1017.79
2019-01-21T06:12:16.994Z,1017.81
2019-01-21T06:13:17.002Z,1017.8
2019-01-21T06:14:17.013Z,1017.82
2019-01-21T06:15:17.025Z,1017.81
2019-01-21T06:16:17.034Z,1017.81
2019-01-21T06:17:17.046Z,1017.84
2019-01-21T06:18:17.057Z,1017.85
2019-01-21T06:19:17.069Z,1017.86
2019-01-21T06:20:17.078Z,1017.87
2019-01-21T06:21:17.090Z,1017.84
2019-01-21T06:22:17.103Z,1017.87
2019-01-21T06:23:17.111Z,1017.85
2019-01-21T06:24:17.122Z,1017.83
2019-01-21T06:25:17.134Z,1017.84
2019-01-21T06:26:17.144Z,1017.84
2019-01-21T06:27:17.154Z,1017.85
2019-01-21T06:28:17.165Z,1017.9
2019-01-21T06:29:17.179Z,1017.89
2019-01-21T06:30:17.188Z,1017.91
2019-01-21T06:31:17.200Z,1017.95
2019-01-21T06:32:17.209Z,1017.92
2019-01-21T06:33:17.221Z,1018.03
2019-01-21T06:34:17.235Z,1018.01
2019-01-21T06:35:17.242Z,1017.97
2019-01-21T06:36:17.253Z,1017.98
2019-01-21T06:37:17.267Z,1017.91
2019-01-21T06:38:17.274Z,1017.94
2019-01-21T06:40:17.296Z,1017.96
2019-01-21T06:41:17.310Z,1017.94
2019-01-21T06:42:17.317Z,1017.98
2019-01-21T06:43:17.329Z,1017.98
2019-01-21T06:44:17.340Z,1017.98
2019-01-21T06:45:17.401Z,1017.98
2019-01-21T06:46:17.361Z,1018.05
2019-01-21T06:47:17.373Z,1017.97
2019-01-21T06:48:17.384Z,1018.01
2019-01-21T06:49:17.394Z,1018
2019-01-21T06:50:17.407Z,1018.04
2019-01-21T06:51:17.467Z,1018.03
2019-01-21T06:52:17.429Z,1017.99
2019-01-21T06:53:17.490Z,1017.96
2019-01-21T06:54:17.448Z,1017.96
2019-01-21T06:56:17.471Z,1017.98
2019-01-21T06:57:17.482Z,1017.93
2019-01-21T06:58:17.492Z,1017.97
2019-01-21T06:59:17.503Z,1018.01
2019-01-21T07:00:17.513Z,1018
2019-01-21T07:01:17.525Z,1017.91
2019-01-21T07:02:17.536Z,1017.94
2019-01-21T07:03:17.547Z,1017.93
2019-01-21T07:04:17.557Z,1018
2019-01-21T07:05:17.568Z,1018.02
2019-01-21T07:06:17.582Z,1018.02
2019-01-21T07:07:17.641Z,1018.02
2019-01-21T07:08:17.600Z,1018.05
2019-01-21T07:09:17.612Z,1018.03
2019-01-21T07:10:17.625Z,1018.03
2019-01-21T07:12:17.646Z,1018.06
2019-01-21T07:13:17.662Z,1018.09
2019-01-21T07:14:17.667Z,1018.03
2019-01-21T07:15:17.677Z,1018
2019-01-21T07:16:17.688Z,1018
2019-01-21T07:17:17.699Z,1017.96
2019-01-21T07:18:17.810Z,1018.01
2019-01-21T07:19:17.720Z,1017.99
2019-01-21T07:20:17.732Z,1017.98
2019-01-21T07:21:17.743Z,1017.98
2019-01-21T07:22:17.753Z,1018
2019-01-21T07:23:17.764Z,1017.99
2019-01-21T07:24:17.775Z,1018.02
2019-01-21T07:25:17.787Z,1018.02
2019-01-21T07:26:17.797Z,1018.02
2019-01-21T07:28:17.822Z,1018.04
2019-01-21T07:29:17.831Z,1018.03
2019-01-21T07:30:17.842Z,1018.05
2019-01-21T07:31:17.854Z,1017.99
2019-01-21T07:32:17.864Z,1018.08
2019-01-21T07:33:17.920Z,1018.09
2019-01-21T07:34:17.887Z,1018.08
2019-01-21T07:35:17.896Z,1018.07
2019-01-21T07:36:17.908Z,1018.08
2019-01-21T07:37:17.918Z,1018.08
2019-01-21T07:38:17.932Z,1018.09
2019-01-21T07:39:17.940Z,1018.06
2019-01-21T07:40:17.951Z,1018.11
2019-01-21T07:41:17.963Z,1018.13
2019-01-21T07:43:17.987Z,1018.14
2019-01-21T07:44:17.995Z,1018.12
2019-01-21T07:45:18.007Z,1018.17
2019-01-21T07:46:18.018Z,1018.08
2019-01-21T07:47:18.029Z,1018.11
2019-01-21T07:48:18.039Z,1018.12
2019-01-21T07:49:18.051Z,1018.15
2019-01-21T07:50:18.062Z,1018.12
2019-01-21T07:51:18.072Z,1018.14
2019-01-21T07:52:18.083Z,1018.1
2019-01-21T07:53:18.097Z,1018.14
2019-01-21T07:54:18.106Z,1018.15
2019-01-21T07:55:18.116Z,1018.19
2019-01-21T07:56:18.127Z,1018.19
2019-01-21T07:57:18.138Z,1018.19
2019-01-21T07:58:18.149Z,1018.22
2019-01-21T07:59:18.162Z,1018.21
2019-01-21T08:00:18.171Z,1018.17
2019-01-21T08:01:18.182Z,1018.16
2019-01-21T08:02:18.191Z,1018.19
2019-01-21T08:03:18.203Z,1018.18
2019-01-21T08:04:18.214Z,1018.2
2019-01-21T08:05:18.225Z,1018.15
2019-01-21T08:06:18.235Z,1018.2
2019-01-21T08:07:18.246Z,1018.2
2019-01-21T08:08:18.259Z,1018.25
2019-01-21T08:09:18.271Z,1018.22
2019-01-21T08:10:18.280Z,1018.26
2019-01-21T08:11:18.291Z,1018.23
2019-01-21T08:12:18.302Z,1018.23
2019-01-21T08:13:18.314Z,1018.24
2019-01-21T08:15:18.334Z,1018.23
2019-01-21T08:16:18.346Z,1018.22
2019-01-21T08:17:18.355Z,1018.21
2019-01-21T08:18:18.367Z,1018.2
2019-01-21T08:19:24.042Z,1018.18
2019-01-21T08:20:18.390Z,1018.17
2019-01-21T08:21:18.400Z,1018.16
2019-01-21T08:22:18.411Z,1018.16
2019-01-21T08:23:18.423Z,1018.19
2019-01-21T08:24:18.434Z,1018.18
2019-01-21T08:25:18.444Z,1018.21
2019-01-21T08:26:18.455Z,1018.21
2019-01-21T08:27:18.467Z,1018.22
2019-01-21T08:28:18.476Z,1018.16
2019-01-21T08:29:18.488Z,1018.15
2019-01-21T08:31:18.511Z,1018.17
2019-01-21T08:32:18.521Z,1018.12
2019-01-21T08:33:18.532Z,1018.14
2019-01-21T08:34:18.544Z,1018.16
2019-01-21T08:35:18.604Z,1018.16
2019-01-21T08:36:18.565Z,1018.2
2019-01-21T08:37:18.626Z,1018.2
2019-01-21T08:38:18.588Z,1018.18
2019-01-21T08:39:18.697Z,1018.21
2019-01-21T08:40:18.609Z,1018.19
2019-01-21T08:41:18.620Z,1018.16
2019-01-21T08:42:18.633Z,1018.19
2019-01-21T08:43:18.642Z,1018.21
2019-01-21T08:44:18.703Z,1018.2
2019-01-21T08:45:18.664Z,1018.21
2019-01-21T08:47:18.686Z,1018.2
2019-01-21T08:48:18.697Z,1018.22
2019-01-21T08:49:18.711Z,1018.2
2019-01-21T08:50:18.719Z,1018.21
2019-01-21T08:51:18.731Z,1018.25
2019-01-21T08:52:18.742Z,1018.25
2019-01-21T08:53:18.754Z,1018.21
2019-01-21T08:54:18.763Z,1018.23
2019-01-21T08:55:18.775Z,1018.2
2019-01-21T08:56:18.786Z,1018.2
2019-01-21T08:57:18.797Z,1018.17
2019-01-21T08:58:18.816Z,1018.14
2019-01-21T08:59:18.819Z,1018.19
2019-01-21T09:00:18.832Z,1018.2
2019-01-21T09:01:18.841Z,1018.2
2019-01-21T09:03:19.307Z,1018.25
2019-01-21T09:04:18.876Z,1018.23
2019-01-21T09:05:18.886Z,1018.28
2019-01-21T09:06:18.909Z,1018.25
2019-01-21T09:07:18.909Z,1018.22
2019-01-21T09:08:18.919Z,1018.23
2019-01-21T09:09:18.931Z,1018.22
2019-01-21T09:10:18.942Z,1018.24
2019-01-21T09:11:18.954Z,1018.21
2019-01-21T09:12:18.964Z,1018.26
2019-01-21T09:13:18.977Z,1018.26
2019-01-21T09:14:18.987Z,1018.3
2019-01-21T09:15:19.000Z,1018.29
2019-01-21T09:16:19.010Z,1018.32
2019-01-21T09:18:19.032Z,1018.29
2019-01-21T09:19:19.043Z,1018.33
2019-01-21T09:20:19.054Z,1018.28
2019-01-21T09:21:19.066Z,1018.29
2019-01-21T09:22:19.078Z,1018.29
2019-01-21T09:23:19.088Z,1018.31
2019-01-21T09:24:19.100Z,1018.28
2019-01-21T09:25:19.111Z,1018.3
2019-01-21T09:26:19.122Z,1018.32
2019-01-21T09:27:19.134Z,1018.32
2019-01-21T09:28:19.145Z,1018.35
2019-01-21T09:29:19.157Z,1018.38
2019-01-21T09:30:19.167Z,1018.37
2019-01-21T09:31:19.178Z,1018.39
2019-01-21T09:32:19.191Z,1018.34
2019-01-21T09:33:19.202Z,1018.34
2019-01-21T09:34:19.212Z,1018.32
2019-01-21T09:35:19.224Z,1018.31
2019-01-21T09:36:19.235Z,1018.29
2019-01-21T09:37:19.246Z,1018.33
2019-01-21T09:38:19.257Z,1018.3
2019-01-21T09:39:19.270Z,1018.38
2019-01-21T09:40:19.280Z,1018.38
2019-01-21T09:41:19.292Z,1018.35
2019-01-21T09:42:19.304Z,1018.35
2019-01-21T09:43:19.315Z,1018.41
2019-01-21T09:44:19.328Z,1018.37
2019-01-21T09:45:19.337Z,1018.33
2019-01-21T09:46:19.348Z,1018.31
2019-01-21T09:47:19.360Z,1018.33
2019-01-21T09:48:19.371Z,1018.31
2019-01-21T09:50:19.395Z,1018.31
2019-01-21T09:51:19.406Z,1018.34
2019-01-21T09:52:19.466Z,1018.41
2019-01-21T09:53:19.428Z,1018.31
2019-01-21T09:54:19.440Z,1018.27
2019-01-21T09:55:19.451Z,1018.25
2019-01-21T09:56:19.463Z,1018.29
2019-01-21T09:57:19.474Z,1018.24
2019-01-21T09:58:19.485Z,1018.29
2019-01-21T09:59:19.496Z,1018.29
2019-01-21T10:00:19.508Z,1018.31
2019-01-21T10:01:19.519Z,1018.31
2019-01-21T10:02:19.581Z,1018.3
2019-01-21T10:03:19.542Z,1018.33
2019-01-21T10:04:19.553Z,1018.31
2019-01-21T10:06:19.577Z,1018.32
2019-01-21T10:07:19.587Z,1018.31
2019-01-21T10:08:19.598Z,1018.3
2019-01-21T10:09:19.610Z,1018.31
2019-01-21T10:10:19.620Z,1018.31
2019-01-21T10:11:19.633Z,1018.23
2019-01-21T10:12:19.645Z,1018.24
2019-01-21T10:13:19.656Z,1018.24
2019-01-21T10:14:19.766Z,1018.18
2019-01-21T10:15:19.678Z,1018.15
2019-01-21T10:16:19.689Z,1018.15
2019-01-21T10:17:19.701Z,1018.14
2019-01-21T10:18:19.712Z,1018.15
2019-01-21T10:19:19.725Z,1018.1
2019-01-21T10:20:19.735Z,1018.1
2019-01-21T10:22:19.757Z,1018.06
2019-01-21T10:23:19.769Z,1018.05
2019-01-21T10:24:19.781Z,1018.02
2019-01-21T10:25:19.791Z,1018.01
2019-01-21T10:26:19.803Z,1017.98
2019-01-21T10:27:19.815Z,1017.96
2019-01-21T10:28:19.826Z,1017.96
2019-01-21T10:29:19.837Z,1017.94
2019-01-21T10:30:19.849Z,1017.92
2019-01-21T10:31:19.861Z,1017.92
2019-01-21T10:32:19.872Z,1017.95
2019-01-21T10:33:19.884Z,1017.93
2019-01-21T10:34:19.895Z,1017.97
2019-01-21T10:35:19.908Z,1017.93
2019-01-21T10:36:19.918Z,1017.88
2019-01-21T10:38:19.942Z,1017.87
2019-01-21T10:39:20.004Z,1017.85
2019-01-21T10:40:19.965Z,1017.85
2019-01-21T10:41:19.980Z,1017.82
2019-01-21T10:42:19.988Z,1017.78
2019-01-21T10:43:20.001Z,1017.8
2019-01-21T10:44:20.011Z,1017.75
2019-01-21T10:45:20.023Z,1017.76
2019-01-21T10:46:20.036Z,1017.71
2019-01-21T10:47:20.046Z,1017.71
2019-01-21T10:48:20.058Z,1017.72
2019-01-21T10:49:20.072Z,1017.7
2019-01-21T10:50:20.083Z,1017.66
2019-01-21T10:51:20.094Z,1017.66
2019-01-21T10:53:20.119Z,1017.6
2019-01-21T10:54:20.129Z,1017.62
2019-01-21T10:55:20.143Z,1017.59
2019-01-21T10:56:20.154Z,1017.57
2019-01-21T10:57:20.167Z,1017.6
2019-01-21T10:58:20.177Z,1017.56
2019-01-21T10:59:20.189Z,1017.47
2019-01-21T11:00:20.201Z,1017.49
2019-01-21T11:01:20.213Z,1017.47
2019-01-21T11:02:20.225Z,1017.45
2019-01-21T11:03:20.238Z,1017.43
2019-01-21T11:04:20.250Z,1017.41
2019-01-21T11:05:20.261Z,1017.38
2019-01-21T11:06:20.273Z,1017.29
2019-01-21T11:07:20.285Z,1017.34
2019-01-21T11:08:20.298Z,1017.35
2019-01-21T11:09:26.473Z,1017.38
2019-01-21T11:10:20.321Z,1017.35
2019-01-21T11:11:20.333Z,1017.39
2019-01-21T11:12:20.345Z,1017.33
2019-01-21T11:13:20.357Z,1017.36
2019-01-21T11:14:20.372Z,1017.35
2019-01-21T11:15:20.385Z,1017.32
2019-01-21T11:16:20.393Z,1017.31
2019-01-21T11:17:20.406Z,1017.29
2019-01-21T11:18:20.418Z,1017.32
2019-01-21T11:19:22.013Z,1017.3
2019-01-21T11:20:20.441Z,1017.28
2019-01-21T11:21:20.454Z,1017.25
2019-01-21T11:22:20.467Z,1017.18
2019-01-21T11:23:20.478Z,1017.17
2019-01-21T11:25:20.501Z,1017.14
2019-01-21T11:26:20.514Z,1017.15
2019-01-21T11:27:20.527Z,1017.1
2019-01-21T11:28:20.538Z,1017.07
2019-01-21T11:29:20.550Z,1017.08
2019-01-21T11:30:20.565Z,1017.01
2019-01-21T11:31:23.631Z,1017.05
2019-01-21T11:32:20.636Z,1017.02
2019-01-21T11:33:20.599Z,1017.02
2019-01-21T11:34:20.611Z,1016.96
2019-01-21T11:35:20.623Z,1016.98
2019-01-21T11:36:20.635Z,1017
2019-01-21T11:37:20.648Z,1017.02
2019-01-21T11:38:20.658Z,1017
2019-01-21T11:39:20.671Z,1017.03
2019-01-21T11:41:20.696Z,1017.04
2019-01-21T11:42:20.707Z,1017.09
2019-01-21T11:43:20.719Z,1017.03
2019-01-21T11:44:20.732Z,1017.05
2019-01-21T11:45:20.752Z,1017.04
2019-01-21T11:46:20.758Z,1017.1
2019-01-21T11:47:20.769Z,1017.07
2019-01-21T11:48:20.831Z,1017.04
2019-01-21T11:49:20.793Z,1017.1
2019-01-21T11:50:20.805Z,1017.08
2019-01-21T11:51:20.817Z,1017.11
2019-01-21T11:52:20.830Z,1017.13
2019-01-21T11:53:20.842Z,1017.13
2019-01-21T11:54:20.854Z,1017.16
2019-01-21T11:55:20.869Z,1017.14
2019-01-21T11:57:20.890Z,1017.08
2019-01-21T11:58:20.902Z,1017.09
2019-01-21T11:59:20.915Z,1017.07
2019-01-21T12:00:20.926Z,1017.08
2019-01-21T12:01:20.939Z,1017.06
2019-01-21T12:02:20.951Z,1017.03
2019-01-21T12:03:23.529Z,1017.07
2019-01-21T12:04:20.977Z,1017.08
2019-01-21T12:05:20.988Z,1017.04
2019-01-21T12:06:21.000Z,1017.06
2019-01-21T12:07:21.012Z,1017.02
2019-01-21T12:08:21.025Z,1017.01
2019-01-21T12:09:21.037Z,1017
2019-01-21T12:10:21.049Z,1016.99
2019-01-21T12:11:21.060Z,1016.98
2019-01-21T12:13:21.086Z,1016.86
2019-01-21T12:14:21.149Z,1016.8
2019-01-21T12:15:21.109Z,1016.79
2019-01-21T12:16:21.123Z,1016.75
2019-01-21T12:17:21.134Z,1016.73
2019-01-21T12:18:21.148Z,1016.72
2019-01-21T12:19:21.164Z,1016.69
2019-01-21T12:20:21.178Z,1016.69
2019-01-21T12:21:21.184Z,1016.72
2019-01-21T12:22:21.195Z,1016.69
2019-01-21T12:23:21.207Z,1016.73
2019-01-21T12:24:21.220Z,1016.7
2019-01-21T12:25:21.232Z,1016.76
2019-01-21T12:26:21.245Z,1016.72
2019-01-21T12:28:21.270Z,1016.74
2019-01-21T12:29:21.281Z,1016.77
2019-01-21T12:30:21.344Z,1016.77
2019-01-21T12:31:21.306Z,1016.77
2019-01-21T12:32:21.319Z,1016.74
2019-01-21T12:33:21.384Z,1016.73
2019-01-21T12:34:21.343Z,1016.76
2019-01-21T12:35:21.356Z,1016.78
2019-01-21T12:36:21.368Z,1016.76
2019-01-21T12:37:21.379Z,1016.77
2019-01-21T12:38:21.393Z,1016.74
2019-01-21T12:39:21.404Z,1016.81
2019-01-21T12:40:21.415Z,1016.79
2019-01-21T12:41:21.869Z,1016.81
2019-01-21T12:42:21.440Z,1016.81
2019-01-21T12:43:21.455Z,1016.74
2019-01-21T12:44:21.465Z,1016.73
2019-01-21T12:45:21.477Z,1016.68
2019-01-21T12:46:21.489Z,1016.66
2019-01-21T12:47:21.501Z,1016.64
2019-01-21T12:48:21.513Z,1016.61